createdAt,value
2022-11-23T00:00:18.118Z,99837.31
2022-11-23T00:03:23.521Z,99839.75
2022-11-23T00:06:28.112Z,99837.22
2022-11-23T00:09:32.593Z,99841.44
2022-11-23T00:12:36.618Z,99837.75
2022-11-23T00:15:42.607Z,99842.38
2022-11-23T00:18:48.058Z,99843.16
2022-11-23T00:21:51.641Z,99843.25
2022-11-23T00:24:55.276Z,99850.28
2022-11-23T00:27:58.970Z,99846.81
2022-11-23T00:31:02.627Z,99846.81
2022-11-23T00:34:07.569Z,99831.41
2022-11-23T00:37:11.349Z,99840.88
2022-11-23T00:40:14.942Z,99847.72
2022-11-23T00:43:18.506Z,99845.88
2022-11-23T00:46:24.198Z,99840.78
2022-11-23T00:49:29.485Z,99845.97
2022-11-23T00:52:33.217Z,99841.69
2022-11-23T00:55:36.796Z,99851.22
2022-11-23T00:58:40.632Z,99848.63
2022-11-23T01:01:44.496Z,99853.84
2022-11-23T01:04:49.510Z,99853.84
2022-11-23T01:07:54.763Z,99850.47
2022-11-23T01:11:04.834Z,99848.75
2022-11-23T01:14:14.810Z,99847.03
2022-11-23T01:17:18.505Z,99858.28
2022-11-23T01:20:23.467Z,99852.31
2022-11-23T01:23:29.406Z,99857.38
2022-11-23T01:26:33.570Z,99854.94
2022-11-23T01:29:37.153Z,99854.03
2022-11-23T01:32:40.750Z,99850.53
2022-11-23T01:35:45.882Z,99851.38
2022-11-23T01:38:50.831Z,99852.22
2022-11-23T01:41:54.418Z,99859.09
2022-11-23T01:45:38.667Z,99853.84
2022-11-23T01:48:48.462Z,99854.72
2022-11-23T01:51:58.763Z,99859.13
2022-11-23T01:55:08.127Z,99856.41
2022-11-23T01:58:15.698Z,99860.75
2022-11-23T02:01:19.408Z,99859.84
2022-11-23T02:04:29.510Z,99854.59
2022-11-23T02:07:35.824Z,99857.28
2022-11-23T02:10:39.644Z,99854.56
2022-11-23T02:13:46.754Z,99848.66
2022-11-23T02:16:50.551Z,99848.00
2022-11-23T02:20:08.445Z,99845.31
2022-11-23T02:23:30.464Z,99843.56
2022-11-23T02:26:38.200Z,99845.25
2022-11-23T02:29:42.335Z,99840.00
2022-11-23T02:32:46.067Z,99842.59
2022-11-23T02:35:51.789Z,99838.19
2022-11-23T02:38:57.046Z,99845.00
2022-11-23T02:42:02.393Z,99850.06
2022-11-23T02:45:17.705Z,99856.88
2022-11-23T02:48:21.618Z,99846.47
2022-11-23T02:51:25.363Z,99849.66
2022-11-23T02:54:29.266Z,99840.19
2022-11-23T02:57:34.335Z,99839.16
2022-11-23T03:00:38.494Z,99848.78
2022-11-23T03:03:42.222Z,99844.47
2022-11-23T03:06:46.174Z,99846.97
2022-11-23T03:09:49.752Z,99845.22
2022-11-23T03:12:57.550Z,99845.06
2022-11-23T03:16:01.160Z,99845.88
2022-11-23T03:19:04.946Z,99848.38
2022-11-23T03:22:08.942Z,99855.19
2022-11-23T03:25:12.492Z,99852.47
2022-11-23T03:28:17.567Z,99847.22
2022-11-23T03:31:21.209Z,99853.22
2022-11-23T03:34:24.876Z,99848.66
2022-11-23T03:37:28.509Z,99852.03
2022-11-23T03:40:32.146Z,99852.84
2022-11-23T03:43:37.108Z,99850.13
2022-11-23T03:46:40.689Z,99854.59
2022-11-23T03:49:44.256Z,99858.81
2022-11-23T03:52:50.280Z,99859.59
2022-11-23T03:55:55.526Z,99867.50
2022-11-23T03:59:00.621Z,99863.13
2022-11-23T04:02:04.227Z,99860.47
2022-11-23T04:05:09.345Z,99865.63
2022-11-23T04:08:12.976Z,99865.72
2022-11-23T04:11:16.595Z,99856.91
2022-11-23T04:14:21.554Z,99857.09
2022-11-23T04:17:25.193Z,99856.91
2022-11-23T04:20:28.850Z,99864.66
2022-11-23T04:23:32.462Z,99859.66
2022-11-23T04:26:36.034Z,99852.63
2022-11-23T04:29:41.061Z,99859.56
2022-11-23T04:32:46.446Z,99854.25
2022-11-23T04:35:49.951Z,99856.91
2022-11-23T04:38:53.561Z,99853.31
2022-11-23T04:41:57.283Z,99854.19
2022-11-23T04:45:02.464Z,99856.84
2022-11-23T04:48:07.135Z,99860.09
2022-11-23T04:51:10.854Z,99861.06
2022-11-23T04:54:14.493Z,99861.91
2022-11-23T04:57:18.167Z,99864.28
2022-11-23T05:00:23.459Z,99869.47
2022-11-23T05:03:27.278Z,99866.00
2022-11-23T05:06:31.010Z,99866.91
2022-11-23T05:09:34.971Z,99870.31
2022-11-23T05:12:38.838Z,99865.88
2022-11-23T05:15:43.833Z,99871.13
2022-11-23T05:18:47.480Z,99870.31
2022-11-23T05:21:51.097Z,99869.41
2022-11-23T05:24:54.659Z,99869.38
2022-11-23T05:28:03.718Z,99868.38
2022-11-23T05:31:16.456Z,99868.59
2022-11-23T05:34:20.006Z,99884.19
2022-11-23T05:37:23.705Z,99871.88
2022-11-23T05:40:27.667Z,99882.31
2022-11-23T05:43:42.322Z,99875.41
2022-11-23T05:46:47.556Z,99882.47
2022-11-23T05:49:51.598Z,99889.28
2022-11-23T05:52:57.470Z,99888.75
2022-11-23T05:56:02.035Z,99888.38
2022-11-23T05:59:06.574Z,99884.47
2022-11-23T06:02:11.695Z,99889.00
2022-11-23T06:05:15.508Z,99882.22
2022-11-23T06:08:20.240Z,99882.31
2022-11-23T06:11:23.941Z,99896.91
2022-11-23T06:14:27.568Z,99898.50
2022-11-23T06:17:32.634Z,99895.63
2022-11-23T06:20:36.396Z,99906.91
2022-11-23T06:23:40.047Z,99911.09
2022-11-23T06:26:43.879Z,99912.66
2022-11-23T06:29:48.085Z,99905.50
2022-11-23T06:32:53.269Z,99911.28
2022-11-23T06:35:59.538Z,99915.56
2022-11-23T06:39:03.421Z,99914.81
2022-11-23T06:42:31.412Z,99913.19
2022-11-23T06:45:30.841Z,99923.66
2022-11-23T06:48:36.128Z,99921.97
2022-11-23T06:51:39.858Z,99923.72
2022-11-23T06:54:43.427Z,99920.31
2022-11-23T06:57:47.118Z,99916.88
2022-11-23T07:00:50.649Z,99923.94
2022-11-23T07:03:55.850Z,99923.94
2022-11-23T07:06:59.474Z,99924.88
2022-11-23T07:10:07.069Z,99938.09
2022-11-23T07:13:12.400Z,99934.63
2022-11-23T07:16:16.690Z,99935.56
2022-11-23T07:19:21.730Z,99940.81
2022-11-23T07:22:25.502Z,99935.66
2022-11-23T07:25:29.300Z,99938.25
2022-11-23T07:28:34.221Z,99939.97
2022-11-23T07:31:37.853Z,99945.25
2022-11-23T07:34:42.844Z,99942.72
2022-11-23T07:37:46.727Z,99954.19
2022-11-23T07:40:51.786Z,99951.09
2022-11-23T07:43:55.466Z,99961.53
2022-11-23T07:47:01.218Z,99966.78
2022-11-23T07:50:09.873Z,99969.41
2022-11-23T07:53:13.644Z,99973.81
2022-11-23T07:56:17.447Z,99968.75
2022-11-23T07:59:21.080Z,99969.47
2022-11-23T08:02:26.181Z,99973.59
2022-11-23T08:05:35.725Z,99977.00
2022-11-23T08:08:40.167Z,99980.34
2022-11-23T08:11:44.286Z,99980.34
2022-11-23T08:14:47.802Z,99971.59
2022-11-23T08:17:56.066Z,99981.84
2022-11-23T08:21:02.556Z,99983.44
2022-11-23T08:24:06.862Z,99982.41
2022-11-23T08:27:10.438Z,99984.13
2022-11-23T08:30:15.934Z,99990.75
2022-11-23T08:33:19.600Z,99993.19
2022-11-23T08:36:25.214Z,99992.31
2022-11-23T08:39:28.848Z,99991.19
2022-11-23T08:42:32.515Z,99992.59
2022-11-23T08:45:36.496Z,99990.66
2022-11-23T08:48:40.343Z,99993.56
2022-11-23T08:51:50.044Z,100002.41
2022-11-23T08:54:54.350Z,99996.13
2022-11-23T08:57:58.721Z,100004.38
2022-11-23T09:01:03.640Z,99994.75
2022-11-23T09:04:07.333Z,99992.91
2022-11-23T09:07:12.283Z,99994.28
2022-11-23T09:10:18.697Z,99983.69
2022-11-23T09:13:22.986Z,99979.94
2022-11-23T09:16:29.651Z,99986.81
2022-11-23T09:19:37.208Z,99984.94
2022-11-23T09:22:42.406Z,99989.84
2022-11-23T09:25:48.415Z,99999.00
2022-11-23T09:28:52.150Z,99999.00
2022-11-23T09:31:55.718Z,99997.03
2022-11-23T09:34:59.290Z,99999.69
2022-11-23T09:38:04.327Z,100002.28
2022-11-23T09:41:26.939Z,100008.50
2022-11-23T09:45:01.167Z,100004.47
2022-11-23T09:48:44.968Z,100002.03
2022-11-23T09:51:51.304Z,100005.28
2022-11-23T09:55:02.161Z,99998.38
2022-11-23T09:58:08.241Z,100003.63
2022-11-23T10:01:17.109Z,100008.28
2022-11-23T10:04:22.171Z,100000.31
2022-11-23T10:07:47.957Z,100002.63
2022-11-23T10:11:01.580Z,99999.19
2022-11-23T10:14:24.755Z,100004.78
2022-11-23T10:17:59.190Z,99996.50
2022-11-23T10:21:19.620Z,99998.69
2022-11-23T10:24:34.664Z,99999.94
2022-11-23T10:27:40.307Z,100005.78
2022-11-23T10:30:46.607Z,99998.53
2022-11-23T10:33:59.502Z,99993.78
2022-11-23T10:37:03.039Z,100002.88
2022-11-23T10:40:19.228Z,100001.41
2022-11-23T10:43:30.079Z,100003.66
2022-11-23T10:46:41.229Z,100009.06
2022-11-23T10:49:59.459Z,100006.44
2022-11-23T10:53:23.610Z,100001.28
2022-11-23T10:56:27.692Z,99994.91
2022-11-23T10:59:38.301Z,99998.22
2022-11-23T11:02:44.206Z,100003.09
2022-11-23T11:06:09.540Z,100005.50
2022-11-23T11:09:22.453Z,99990.63
2022-11-23T11:12:27.284Z,99985.78
2022-11-23T11:15:32.984Z,99983.88
2022-11-23T11:18:39.319Z,99983.41
2022-11-23T11:21:44.114Z,99983.13
2022-11-23T11:24:49.622Z,99980.91
2022-11-23T11:27:53.950Z,99983.56
2022-11-23T11:31:22.798Z,99979.97
2022-11-23T11:34:33.508Z,99977.19
2022-11-23T11:37:42.492Z,99982.78
2022-11-23T11:40:50.230Z,99984.91
2022-11-23T11:44:06.171Z,99977.22
2022-11-23T11:47:28.338Z,99976.72
2022-11-23T11:50:42.425Z,99979.53
2022-11-23T11:53:57.463Z,99979.13
2022-11-23T11:57:08.431Z,99977.22
2022-11-23T12:00:18.370Z,99978.59
2022-11-23T12:03:40.400Z,99970.47
2022-11-23T12:06:52.964Z,99955.13
2022-11-23T12:10:06.371Z,99957.81
2022-11-23T12:13:15.339Z,99958.97
2022-11-23T12:16:31.539Z,99952.34
2022-11-23T12:19:46.251Z,99960.84
2022-11-23T12:23:11.063Z,99960.84
2022-11-23T12:26:29.302Z,99956.78
2022-11-23T12:30:02.430Z,99963.81
2022-11-23T12:33:35.606Z,99960.69
2022-11-23T12:37:07.421Z,99950.38
2022-11-23T12:40:37.766Z,99961.44
2022-11-23T12:44:09.545Z,99961.50
2022-11-23T12:47:32.976Z,99955.22
2022-11-23T12:50:49.060Z,99948.38
2022-11-23T12:54:13.751Z,99948.09
2022-11-23T12:57:26.018Z,99952.91
2022-11-23T13:00:37.415Z,99946.84
2022-11-23T13:04:18.347Z,99948.78
2022-11-23T13:07:59.061Z,99944.91
2022-11-23T13:11:28.525Z,99945.84
2022-11-23T13:14:45.861Z,99946.09
2022-11-23T13:18:01.162Z,99943.19
2022-11-23T13:21:30.526Z,99946.56
2022-11-23T13:24:36.910Z,99943.75
2022-11-23T13:27:57.867Z,99933.69
2022-11-23T13:31:31.285Z,99931.59
2022-11-23T13:34:51.134Z,99927.19
2022-11-23T13:38:43.596Z,99930.91
2022-11-23T13:42:02.724Z,99924.50
2022-11-23T13:45:31.915Z,99924.94
2022-11-23T13:49:00.813Z,99915.56
2022-11-23T13:52:32.610Z,99918.50
2022-11-23T13:55:38.982Z,99916.38
2022-11-23T13:58:52.393Z,99910.88
2022-11-23T14:02:31.544Z,99909.97
2022-11-23T14:06:01.285Z,99909.91
2022-11-23T14:09:19.312Z,99916.47
2022-11-23T14:12:35.734Z,99910.34
2022-11-23T14:15:47.162Z,99909.81
2022-11-23T14:19:14.530Z,99908.22
2022-11-23T14:22:35.636Z,99904.59
2022-11-23T14:25:57.219Z,99900.59
2022-11-23T14:29:27.419Z,99899.22
2022-11-23T14:32:55.602Z,99915.09
2022-11-23T14:36:21.652Z,99923.09
2022-11-23T14:40:02.663Z,99932.88
2022-11-23T14:43:19.073Z,99935.78
2022-11-23T14:46:32.277Z,99941.31
2022-11-23T14:49:49.781Z,99960.84
2022-11-23T14:52:59.685Z,99950.84
2022-11-23T14:56:03.863Z,99954.72
2022-11-23T14:59:16.362Z,99960.19
2022-11-23T15:02:26.509Z,99962.47
2022-11-23T15:05:35.014Z,99963.63
2022-11-23T15:08:51.098Z,99955.06
2022-11-23T15:12:08.546Z,99946.66
2022-11-23T15:15:37.938Z,99964.44
2022-11-23T15:18:42.530Z,99961.94
2022-11-23T15:21:46.827Z,99967.47
2022-11-23T15:24:52.829Z,99967.84
2022-11-23T15:27:56.687Z,99964.38
2022-11-23T15:31:00.382Z,99961.19
2022-11-23T15:34:13.427Z,99961.50
2022-11-23T15:37:18.480Z,99959.78
2022-11-23T15:40:28.848Z,99952.47
2022-11-23T15:43:32.390Z,99952.63
2022-11-23T15:46:39.056Z,99942.41
2022-11-23T15:49:43.039Z,99938.13
2022-11-23T15:52:46.887Z,99934.97
2022-11-23T15:55:52.609Z,99941.56
2022-11-23T15:58:57.845Z,99940.78
2022-11-23T16:02:03.269Z,99943.75
2022-11-23T16:05:15.388Z,99948.38
2022-11-23T16:08:26.771Z,99954.78
2022-11-23T16:11:35.790Z,99974.22
2022-11-23T16:14:39.377Z,99967.50
2022-11-23T16:17:46.475Z,99965.03
2022-11-23T16:20:55.486Z,99963.38
2022-11-23T16:24:01.118Z,99962.69
2022-11-23T16:27:16.506Z,99964.56
2022-11-23T16:30:25.298Z,99965.56
2022-11-23T16:33:30.392Z,99961.25
2022-11-23T16:36:34.043Z,99969.94
2022-11-23T16:39:37.737Z,99970.94
2022-11-23T16:42:42.708Z,99976.09
2022-11-23T16:45:48.795Z,99982.31
2022-11-23T16:48:53.991Z,99992.13
2022-11-23T16:51:57.685Z,100002.78
2022-11-23T16:55:01.478Z,100009.13
2022-11-23T16:58:06.847Z,100016.38
2022-11-23T17:01:20.890Z,100032.09
2022-11-23T17:04:24.918Z,100036.56
2022-11-23T17:07:28.674Z,100035.69
2022-11-23T17:10:32.717Z,100046.03
2022-11-23T17:13:37.811Z,100044.00
2022-11-23T17:16:42.230Z,100050.78
2022-11-23T17:19:48.314Z,100049.94
2022-11-23T17:22:52.008Z,100054.09
2022-11-23T17:25:55.723Z,100056.50
2022-11-23T17:29:03.638Z,100060.06
2022-11-23T17:32:10.453Z,100059.00
2022-11-23T17:35:14.117Z,100066.88
2022-11-23T17:38:24.538Z,100058.94
2022-11-23T17:41:28.445Z,100071.38
2022-11-23T17:44:33.675Z,100068.88
2022-11-23T17:47:38.105Z,100070.72
2022-11-23T17:50:42.096Z,100076.16
2022-11-23T17:53:47.714Z,100072.06
2022-11-23T17:56:52.614Z,100083.41
2022-11-23T18:00:01.991Z,100094.78
2022-11-23T18:03:07.083Z,100094.91
2022-11-23T18:06:15.576Z,100096.59
2022-11-23T18:09:19.260Z,100095.00
2022-11-23T18:12:22.926Z,100099.25
2022-11-23T18:15:33.745Z,100097.63
2022-11-23T18:18:53.296Z,100099.50
2022-11-23T18:21:57.390Z,100099.50
2022-11-23T18:25:01.876Z,100100.69
2022-11-23T18:28:06.827Z,100099.84
2022-11-23T18:31:11.984Z,100104.09
2022-11-23T18:34:15.599Z,100101.50
2022-11-23T18:37:19.155Z,100105.09
2022-11-23T18:40:22.850Z,100106.00
2022-11-23T18:43:26.536Z,100106.78
2022-11-23T18:46:33.165Z,100107.66
2022-11-23T18:49:36.943Z,100110.25
2022-11-23T18:52:40.671Z,100111.19
2022-11-23T18:55:44.391Z,100113.75
2022-11-23T18:58:48.414Z,100108.59
2022-11-23T19:01:53.439Z,100117.22
2022-11-23T19:04:57.097Z,100120.75
2022-11-23T19:08:05.586Z,100123.34
2022-11-23T19:11:16.137Z,100125.06
2022-11-23T19:14:19.724Z,100125.78
2022-11-23T19:17:24.731Z,100130.78
2022-11-23T19:20:30.048Z,100120.06
2022-11-23T19:23:33.824Z,100124.00
2022-11-23T19:26:38.680Z,100118.44
2022-11-23T19:29:42.570Z,100119.97
2022-11-23T19:32:47.978Z,100126.56
2022-11-23T19:35:51.836Z,100127.22
2022-11-23T19:38:58.296Z,100124.69
2022-11-23T19:42:02.023Z,100130.56
2022-11-23T19:45:06.607Z,100129.47
2022-11-23T19:48:11.714Z,100130.22
2022-11-23T19:51:18.149Z,100135.13
2022-11-23T19:54:21.863Z,100128.00
2022-11-23T19:57:25.489Z,100133.28
2022-11-23T20:00:29.307Z,100129.75
2022-11-23T20:03:36.322Z,100138.56
2022-11-23T20:06:43.174Z,100147.00
2022-11-23T20:09:48.391Z,100141.56
2022-11-23T20:12:52.098Z,100140.66
2022-11-23T20:16:12.461Z,100143.44
2022-11-23T20:19:17.587Z,100148.50
2022-11-23T20:22:21.300Z,100148.59
2022-11-23T20:25:24.915Z,100152.72
2022-11-23T20:28:28.669Z,100153.44
2022-11-23T20:31:33.826Z,100158.66
2022-11-23T20:34:38.838Z,100158.81
2022-11-23T20:37:42.427Z,100168.31
2022-11-23T20:40:47.042Z,100160.38
2022-11-23T20:43:54.435Z,100168.22
2022-11-23T20:47:02.670Z,100173.59
2022-11-23T20:50:10.443Z,100179.59
2022-11-23T20:53:14.034Z,100180.44
2022-11-23T20:56:25.754Z,100183.13
2022-11-23T20:59:32.983Z,100189.31
2022-11-23T21:02:36.762Z,100189.34
2022-11-23T21:05:41.815Z,100186.97
2022-11-23T21:08:47.505Z,100197.38
2022-11-23T21:12:08.275Z,100201.03
2022-11-23T21:15:12.428Z,100208.00
2022-11-23T21:18:16.639Z,100211.47
2022-11-23T21:21:21.872Z,100213.59
2022-11-23T21:24:25.887Z,100220.56
2022-11-23T21:27:29.641Z,100225.75
2022-11-23T21:30:33.504Z,100225.06
2022-11-23T21:33:38.005Z,100228.56
2022-11-23T21:36:43.018Z,100236.44
2022-11-23T21:39:52.522Z,100238.06
2022-11-23T21:42:57.112Z,100237.19
2022-11-23T21:46:01.996Z,100238.16
2022-11-23T21:49:06.764Z,100239.78
2022-11-23T21:52:11.758Z,100240.59
2022-11-23T21:55:15.485Z,100243.13
2022-11-23T21:58:19.078Z,100242.28
2022-11-23T22:01:25.147Z,100247.53
2022-11-23T22:04:28.802Z,100241.41
2022-11-23T22:07:35.982Z,100248.44
2022-11-23T22:10:39.694Z,100243.78
2022-11-23T22:13:44.515Z,100256.91
2022-11-23T22:16:50.818Z,100253.41
2022-11-23T22:19:54.538Z,100253.53
2022-11-23T22:22:59.621Z,100259.53
2022-11-23T22:26:03.441Z,100252.69
2022-11-23T22:29:07.244Z,100262.09
2022-11-23T22:32:10.915Z,100269.13
2022-11-23T22:35:14.560Z,100270.03
2022-11-23T22:38:19.554Z,100272.50
2022-11-23T22:41:23.687Z,100275.75
2022-11-23T22:44:27.378Z,100275.81
2022-11-23T22:47:30.950Z,100276.63
2022-11-23T22:50:34.530Z,100277.56
2022-11-23T22:53:44.626Z,100280.16
2022-11-23T22:56:48.651Z,100277.47
2022-11-23T22:59:53.261Z,100281.81
2022-11-23T23:02:57.091Z,100285.28
2022-11-23T23:06:01.306Z,100288.72
2022-11-23T23:09:09.322Z,100303.50
2022-11-23T23:12:13.109Z,100298.41
2022-11-23T23:15:16.839Z,100308.09
2022-11-23T23:18:20.395Z,100312.34
2022-11-23T23:21:24.614Z,100317.50
2022-11-23T23:24:29.579Z,100312.41
2022-11-23T23:27:33.199Z,100316.56
2022-11-23T23:30:36.924Z,100324.47
2022-11-23T23:33:40.993Z,100317.59
2022-11-23T23:36:44.630Z,100334.06
2022-11-23T23:39:49.673Z,100337.69
2022-11-23T23:42:53.225Z,100336.03
2022-11-23T23:45:59.581Z,100328.34
2022-11-23T23:49:03.424Z,100338.66
2022-11-23T23:52:07.265Z,100341.56
2022-11-23T23:55:12.457Z,100342.25
2022-11-23T23:58:16.107Z,100343.84
